sensor_id;sensor_type;location;lat;lon;timestamp;P1;durP1;ratioP1;P2;durP2;ratioP2
14770;SDS011;7477;45.222;5.688;2024-01-06T00:02:04;9.27;;;6.07;;
14770;SDS011;7477;45.222;5.688;2024-01-06T00:05:24;8.73;;;6.07;;
14770;SDS011;7477;45.222;5.688;2024-01-06T00:08:43;8.00;;;6.15;;
14770;SDS011;7477;45.222;5.688;2024-01-06T00:12:02;7.80;;;5.65;;
14770;SDS011;7477;45.222;5.688;2024-01-06T00:15:22;7.13;;;5.18;;
14770;SDS011;7477;45.222;5.688;2024-01-06T00:18:41;6.55;;;5.13;;
14770;SDS011;7477;45.222;5.688;2024-01-06T00:22:00;6.93;;;4.22;;
14770;SDS011;7477;45.222;5.688;2024-01-06T00:25:19;5.97;;;4.25;;
14770;SDS011;7477;45.222;5.688;2024-01-06T00:28:41;6.40;;;4.80;;
14770;SDS011;7477;45.222;5.688;2024-01-06T00:32:00;6.13;;;4.50;;
14770;SDS011;7477;45.222;5.688;2024-01-06T00:35:19;7.18;;;4.93;;
14770;SDS011;7477;45.222;5.688;2024-01-06T00:38:39;7.35;;;5.15;;
14770;SDS011;7477;45.222;5.688;2024-01-06T00:41:58;5.53;;;4.30;;
14770;SDS011;7477;45.222;5.688;2024-01-06T00:45:17;7.88;;;5.07;;
14770;SDS011;7477;45.222;5.688;2024-01-06T00:48:36;5.38;;;4.18;;
14770;SDS011;7477;45.222;5.688;2024-01-06T00:51:56;6.10;;;4.30;;
14770;SDS011;7477;45.222;5.688;2024-01-06T00:55:15;5.85;;;4.05;;
14770;SDS011;7477;45.222;5.688;2024-01-06T00:58:34;3.97;;;3.22;;
14770;SDS011;7477;45.222;5.688;2024-01-06T01:01:53;4.93;;;2.70;;
14770;SDS011;7477;45.222;5.688;2024-01-06T01:05:12;3.95;;;2.72;;
14770;SDS011;7477;45.222;5.688;2024-01-06T01:08:31;3.78;;;2.60;;
14770;SDS011;7477;45.222;5.688;2024-01-06T01:11:51;5.95;;;3.85;;
14770;SDS011;7477;45.222;5.688;2024-01-06T01:15:10;5.40;;;2.55;;
14770;SDS011;7477;45.222;5.688;2024-01-06T01:18:29;3.75;;;2.60;;
14770;SDS011;7477;45.222;5.688;2024-01-06T01:21:48;2.78;;;2.13;;
14770;SDS011;7477;45.222;5.688;2024-01-06T01:25:07;12.70;;;5.82;;
14770;SDS011;7477;45.222;5.688;2024-01-06T01:28:26;1.75;;;1.65;;
14770;SDS011;7477;45.222;5.688;2024-01-06T01:31:46;3.60;;;2.50;;
14770;SDS011;7477;45.222;5.688;2024-01-06T01:35:07;1.48;;;1.38;;
14770;SDS011;7477;45.222;5.688;2024-01-06T01:38:26;2.67;;;1.30;;
14770;SDS011;7477;45.222;5.688;2024-01-06T01:41:46;2.10;;;1.50;;
14770;SDS011;7477;45.222;5.688;2024-01-06T01:45:05;1.60;;;1.17;;
14770;SDS011;7477;45.222;5.688;2024-01-06T01:48:24;1.65;;;1.40;;
14770;SDS011;7477;45.222;5.688;2024-01-06T01:51:44;1.60;;;1.50;;
14770;SDS011;7477;45.222;5.688;2024-01-06T01:55:03;1.33;;;1.23;;
14770;SDS011;7477;45.222;5.688;2024-01-06T01:58:23;1.55;;;1.38;;
14770;SDS011;7477;45.222;5.688;2024-01-06T02:01:42;3.03;;;1.60;;
14770;SDS011;7477;45.222;5.688;2024-01-06T02:05:02;1.70;;;1.30;;
14770;SDS011;7477;45.222;5.688;2024-01-06T02:08:22;1.40;;;1.30;;
14770;SDS011;7477;45.222;5.688;2024-01-06T02:11:42;1.90;;;1.70;;
14770;SDS011;7477;45.222;5.688;2024-01-06T02:15:01;2.22;;;1.65;;
14770;SDS011;7477;45.222;5.688;2024-01-06T02:18:21;2.60;;;1.50;;
14770;SDS011;7477;45.222;5.688;2024-01-06T02:21:41;2.70;;;1.58;;
14770;SDS011;7477;45.222;5.688;2024-01-06T02:25:02;1.98;;;1.77;;
14770;SDS011;7477;45.222;5.688;2024-01-06T02:28:30;1.77;;;1.38;;
14770;SDS011;7477;45.222;5.688;2024-01-06T02:31:49;1.55;;;1.30;;
14770;SDS011;7477;45.222;5.688;2024-01-06T02:35:09;3.95;;;1.60;;
14770;SDS011;7477;45.222;5.688;2024-01-06T02:38:28;1.67;;;1.58;;
14770;SDS011;7477;45.222;5.688;2024-01-06T02:41:47;2.00;;;1.45;;
14770;SDS011;7477;45.222;5.688;2024-01-06T02:45:07;1.55;;;1.38;;
14770;SDS011;7477;45.222;5.688;2024-01-06T02:48:27;1.33;;;1.23;;
14770;SDS011;7477;45.222;5.688;2024-01-06T02:51:49;2.30;;;1.77;;
14770;SDS011;7477;45.222;5.688;2024-01-06T02:55:08;1.75;;;1.30;;
14770;SDS011;7477;45.222;5.688;2024-01-06T02:58:27;1.85;;;1.23;;
14770;SDS011;7477;45.222;5.688;2024-01-06T03:01:46;1.33;;;1.23;;
14770;SDS011;7477;45.222;5.688;2024-01-06T03:05:06;2.38;;;1.20;;
14770;SDS011;7477;45.222;5.688;2024-01-06T03:08:25;1.48;;;1.25;;
14770;SDS011;7477;45.222;5.688;2024-01-06T03:11:45;1.48;;;1.30;;
14770;SDS011;7477;45.222;5.688;2024-01-06T03:15:05;2.33;;;1.48;;
14770;SDS011;7477;45.222;5.688;2024-01-06T03:18:25;1.50;;;1.08;;
14770;SDS011;7477;45.222;5.688;2024-01-06T03:21:44;1.40;;;1.23;;
14770;SDS011;7477;45.222;5.688;2024-01-06T03:25:03;4.05;;;1.52;;
14770;SDS011;7477;45.222;5.688;2024-01-06T03:28:24;2.63;;;1.40;;
14770;SDS011;7477;45.222;5.688;2024-01-06T03:31:44;2.63;;;1.73;;
14770;SDS011;7477;45.222;5.688;2024-01-06T03:35:05;5.05;;;1.77;;
14770;SDS011;7477;45.222;5.688;2024-01-06T03:38:25;2.30;;;1.77;;
14770;SDS011;7477;45.222;5.688;2024-01-06T03:41:44;1.98;;;1.60;;
14770;SDS011;7477;45.222;5.688;2024-01-06T03:45:03;2.63;;;1.38;;
14770;SDS011;7477;45.222;5.688;2024-01-06T03:48:22;2.08;;;1.40;;
14770;SDS011;7477;45.222;5.688;2024-01-06T03:51:41;1.50;;;1.40;;
14770;SDS011;7477;45.222;5.688;2024-01-06T03:55:01;1.40;;;1.23;;
14770;SDS011;7477;45.222;5.688;2024-01-06T03:58:21;2.20;;;1.50;;
14770;SDS011;7477;45.222;5.688;2024-01-06T04:01:41;3.38;;;1.33;;
14770;SDS011;7477;45.222;5.688;2024-01-06T04:05:00;2.05;;;1.60;;
14770;SDS011;7477;45.222;5.688;2024-01-06T04:08:19;3.10;;;1.50;;
14770;SDS011;7477;45.222;5.688;2024-01-06T04:11:39;2.05;;;1.77;;
14770;SDS011;7477;45.222;5.688;2024-01-06T04:14:58;1.83;;;1.20;;
14770;SDS011;7477;45.222;5.688;2024-01-06T04:18:17;1.83;;;1.33;;
14770;SDS011;7477;45.222;5.688;2024-01-06T04:21:36;2.13;;;1.20;;
14770;SDS011;7477;45.222;5.688;2024-01-06T04:24:55;1.52;;;1.33;;
14770;SDS011;7477;45.222;5.688;2024-01-06T04:28:14;4.88;;;1.38;;
14770;SDS011;7477;45.222;5.688;2024-01-06T04:31:34;2.58;;;1.27;;
14770;SDS011;7477;45.222;5.688;2024-01-06T04:34:53;1.02;;;1.02;;
14770;SDS011;7477;45.222;5.688;2024-01-06T04:38:12;3.00;;;1.20;;
14770;SDS011;7477;45.222;5.688;2024-01-06T04:41:31;1.88;;;1.50;;
14770;SDS011;7477;45.222;5.688;2024-01-06T04:44:51;2.35;;;1.38;;
14770;SDS011;7477;45.222;5.688;2024-01-06T04:48:10;1.00;;;1.00;;
14770;SDS011;7477;45.222;5.688;2024-01-06T04:51:29;2.95;;;1.30;;
14770;SDS011;7477;45.222;5.688;2024-01-06T04:54:48;1.80;;;1.48;;
14770;SDS011;7477;45.222;5.688;2024-01-06T04:58:08;3.25;;;1.50;;
14770;SDS011;7477;45.222;5.688;2024-01-06T05:01:27;1.48;;;1.05;;
14770;SDS011;7477;45.222;5.688;2024-01-06T05:04:46;1.63;;;1.50;;
14770;SDS011;7477;45.222;5.688;2024-01-06T05:08:05;5.70;;;1.83;;
14770;SDS011;7477;45.222;5.688;2024-01-06T05:11:24;1.48;;;1.35;;
14770;SDS011;7477;45.222;5.688;2024-01-06T05:14:44;2.33;;;1.55;;
14770;SDS011;7477;45.222;5.688;2024-01-06T05:18:03;2.20;;;1.58;;
14770;SDS011;7477;45.222;5.688;2024-01-06T05:21:22;4.55;;;1.40;;
14770;SDS011;7477;45.222;5.688;2024-01-06T05:24:42;4.22;;;1.38;;
14770;SDS011;7477;45.222;5.688;2024-01-06T05:28:01;3.95;;;1.58;;
14770;SDS011;7477;45.222;5.688;2024-01-06T05:31:20;1.75;;;1.10;;
14770;SDS011;7477;45.222;5.688;2024-01-06T05:34:39;3.05;;;1.27;;
14770;SDS011;7477;45.222;5.688;2024-01-06T05:37:58;1.60;;;1.20;;
14770;SDS011;7477;45.222;5.688;2024-01-06T05:41:17;2.08;;;1.52;;
14770;SDS011;7477;45.222;5.688;2024-01-06T05:44:37;2.53;;;1.58;;
14770;SDS011;7477;45.222;5.688;2024-01-06T05:47:56;3.63;;;1.55;;
14770;SDS011;7477;45.222;5.688;2024-01-06T05:51:15;5.30;;;1.10;;
14770;SDS011;7477;45.222;5.688;2024-01-06T05:54:35;3.55;;;1.50;;
14770;SDS011;7477;45.222;5.688;2024-01-06T05:57:54;2.53;;;1.60;;
14770;SDS011;7477;45.222;5.688;2024-01-06T06:01:13;2.25;;;1.50;;
14770;SDS011;7477;45.222;5.688;2024-01-06T06:04:33;3.22;;;1.50;;
14770;SDS011;7477;45.222;5.688;2024-01-06T06:07:52;2.65;;;1.42;;
14770;SDS011;7477;45.222;5.688;2024-01-06T06:11:11;1.52;;;1.30;;
14770;SDS011;7477;45.222;5.688;2024-01-06T06:14:30;1.58;;;1.40;;
14770;SDS011;7477;45.222;5.688;2024-01-06T06:17:49;1.45;;;1.35;;
14770;SDS011;7477;45.222;5.688;2024-01-06T06:21:09;3.78;;;1.80;;
14770;SDS011;7477;45.222;5.688;2024-01-06T06:24:29;3.08;;;1.58;;
14770;SDS011;7477;45.222;5.688;2024-01-06T06:27:48;2.47;;;1.48;;
14770;SDS011;7477;45.222;5.688;2024-01-06T06:31:07;5.30;;;1.50;;
14770;SDS011;7477;45.222;5.688;2024-01-06T06:34:26;3.40;;;1.33;;
14770;SDS011;7477;45.222;5.688;2024-01-06T06:37:45;3.28;;;1.38;;
14770;SDS011;7477;45.222;5.688;2024-01-06T06:41:05;2.55;;;2.17;;
14770;SDS011;7477;45.222;5.688;2024-01-06T06:44:24;5.85;;;1.55;;
14770;SDS011;7477;45.222;5.688;2024-01-06T06:47:43;4.97;;;3.17;;
14770;SDS011;7477;45.222;5.688;2024-01-06T06:51:02;3.75;;;1.73;;
14770;SDS011;7477;45.222;5.688;2024-01-06T06:54:22;3.17;;;2.50;;
14770;SDS011;7477;45.222;5.688;2024-01-06T06:57:41;6.57;;;2.17;;
14770;SDS011;7477;45.222;5.688;2024-01-06T07:01:00;1.92;;;1.73;;
14770;SDS011;7477;45.222;5.688;2024-01-06T07:04:19;4.32;;;2.40;;
14770;SDS011;7477;45.222;5.688;2024-01-06T07:07:38;4.70;;;2.05;;
14770;SDS011;7477;45.222;5.688;2024-01-06T07:10:58;5.32;;;1.83;;
14770;SDS011;7477;45.222;5.688;2024-01-06T07:14:17;2.08;;;1.70;;
14770;SDS011;7477;45.222;5.688;2024-01-06T07:17:36;2.33;;;2.00;;
14770;SDS011;7477;45.222;5.688;2024-01-06T07:20:57;2.60;;;1.52;;
14770;SDS011;7477;45.222;5.688;2024-01-06T07:24:16;2.40;;;1.50;;
14770;SDS011;7477;45.222;5.688;2024-01-06T07:27:36;3.67;;;1.90;;
14770;SDS011;7477;45.222;5.688;2024-01-06T07:30:56;2.67;;;1.88;;
14770;SDS011;7477;45.222;5.688;2024-01-06T07:34:15;3.67;;;2.30;;
14770;SDS011;7477;45.222;5.688;2024-01-06T07:37:34;5.43;;;2.20;;
14770;SDS011;7477;45.222;5.688;2024-01-06T07:40:54;3.33;;;2.05;;
14770;SDS011;7477;45.222;5.688;2024-01-06T07:44:13;4.07;;;2.17;;
14770;SDS011;7477;45.222;5.688;2024-01-06T07:47:34;2.45;;;2.00;;
14770;SDS011;7477;45.222;5.688;2024-01-06T07:50:53;2.27;;;1.70;;
14770;SDS011;7477;45.222;5.688;2024-01-06T07:54:13;2.03;;;1.92;;
14770;SDS011;7477;45.222;5.688;2024-01-06T07:57:32;4.22;;;1.35;;
14770;SDS011;7477;45.222;5.688;2024-01-06T08:00:51;3.95;;;1.77;;
14770;SDS011;7477;45.222;5.688;2024-01-06T08:04:11;2.88;;;1.90;;
14770;SDS011;7477;45.222;5.688;2024-01-06T08:07:30;5.05;;;2.60;;
14770;SDS011;7477;45.222;5.688;2024-01-06T08:10:50;1.65;;;1.25;;
14770;SDS011;7477;45.222;5.688;2024-01-06T08:14:09;2.60;;;1.50;;
14770;SDS011;7477;45.222;5.688;2024-01-06T08:17:29;2.85;;;1.77;;
14770;SDS011;7477;45.222;5.688;2024-01-06T08:20:49;4.40;;;2.05;;
14770;SDS011;7477;45.222;5.688;2024-01-06T08:24:08;3.87;;;2.37;;
14770;SDS011;7477;45.222;5.688;2024-01-06T08:27:27;1.67;;;1.40;;
14770;SDS011;7477;45.222;5.688;2024-01-06T08:30:47;2.70;;;2.00;;
14770;SDS011;7477;45.222;5.688;2024-01-06T08:34:06;2.85;;;1.92;;
14770;SDS011;7477;45.222;5.688;2024-01-06T08:37:26;3.03;;;1.60;;
14770;SDS011;7477;45.222;5.688;2024-01-06T08:40:45;1.40;;;1.25;;
14770;SDS011;7477;45.222;5.688;2024-01-06T08:44:07;1.50;;;1.40;;
14770;SDS011;7477;45.222;5.688;2024-01-06T08:47:26;2.70;;;1.23;;
14770;SDS011;7477;45.222;5.688;2024-01-06T08:50:45;2.83;;;1.60;;
14770;SDS011;7477;45.222;5.688;2024-01-06T08:54:05;1.83;;;1.52;;
14770;SDS011;7477;45.222;5.688;2024-01-06T08:57:24;3.90;;;1.58;;
14770;SDS011;7477;45.222;5.688;2024-01-06T09:00:44;2.25;;;1.67;;
14770;SDS011;7477;45.222;5.688;2024-01-06T09:04:03;2.58;;;1.55;;
14770;SDS011;7477;45.222;5.688;2024-01-06T09:07:22;3.57;;;2.27;;
14770;SDS011;7477;45.222;5.688;2024-01-06T09:10:41;7.32;;;2.95;;
14770;SDS011;7477;45.222;5.688;2024-01-06T09:14:02;3.60;;;2.17;;
14770;SDS011;7477;45.222;5.688;2024-01-06T09:17:21;2.75;;;1.95;;
14770;SDS011;7477;45.222;5.688;2024-01-06T09:20:41;3.08;;;2.63;;
14770;SDS011;7477;45.222;5.688;2024-01-06T09:24:00;2.47;;;2.10;;
14770;SDS011;7477;45.222;5.688;2024-01-06T09:27:24;6.35;;;2.50;;
14770;SDS011;7477;45.222;5.688;2024-01-06T09:30:43;4.03;;;2.67;;
14770;SDS011;7477;45.222;5.688;2024-01-06T09:34:03;6.07;;;2.37;;
14770;SDS011;7477;45.222;5.688;2024-01-06T09:37:23;4.80;;;2.03;;
14770;SDS011;7477;45.222;5.688;2024-01-06T09:40:42;10.02;;;3.33;;
14770;SDS011;7477;45.222;5.688;2024-01-06T09:44:03;6.88;;;3.45;;
14770;SDS011;7477;45.222;5.688;2024-01-06T09:47:23;6.13;;;2.65;;
14770;SDS011;7477;45.222;5.688;2024-01-06T09:50:47;2.85;;;2.47;;
14770;SDS011;7477;45.222;5.688;2024-01-06T09:54:09;6.68;;;3.60;;
14770;SDS011;7477;45.222;5.688;2024-01-06T09:57:30;4.10;;;2.47;;
14770;SDS011;7477;45.222;5.688;2024-01-06T10:00:51;4.45;;;2.47;;
14770;SDS011;7477;45.222;5.688;2024-01-06T10:04:11;5.72;;;2.60;;
14770;SDS011;7477;45.222;5.688;2024-01-06T10:07:30;4.10;;;2.13;;
14770;SDS011;7477;45.222;5.688;2024-01-06T10:10:49;3.80;;;2.65;;
14770;SDS011;7477;45.222;5.688;2024-01-06T10:14:08;5.43;;;2.00;;
14770;SDS011;7477;45.222;5.688;2024-01-06T10:17:27;4.50;;;2.90;;
14770;SDS011;7477;45.222;5.688;2024-01-06T10:20:47;3.55;;;2.00;;
14770;SDS011;7477;45.222;5.688;2024-01-06T10:24:07;2.15;;;1.90;;
14770;SDS011;7477;45.222;5.688;2024-01-06T10:27:28;2.72;;;1.70;;
14770;SDS011;7477;45.222;5.688;2024-01-06T10:30:47;3.92;;;2.13;;
14770;SDS011;7477;45.222;5.688;2024-01-06T10:34:07;4.32;;;2.17;;
14770;SDS011;7477;45.222;5.688;2024-01-06T10:37:27;5.60;;;1.87;;
14770;SDS011;7477;45.222;5.688;2024-01-06T10:40:57;4.78;;;2.08;;
14770;SDS011;7477;45.222;5.688;2024-01-06T10:44:17;3.20;;;2.78;;
14770;SDS011;7477;45.222;5.688;2024-01-06T10:47:38;2.53;;;2.28;;
14770;SDS011;7477;45.222;5.688;2024-01-06T10:50:59;4.93;;;2.30;;
14770;SDS011;7477;45.222;5.688;2024-01-06T10:54:20;3.97;;;2.20;;
14770;SDS011;7477;45.222;5.688;2024-01-06T10:57:40;4.30;;;2.27;;
14770;SDS011;7477;45.222;5.688;2024-01-06T11:01:02;4.50;;;2.80;;
14770;SDS011;7477;45.222;5.688;2024-01-06T11:04:22;4.60;;;1.93;;
14770;SDS011;7477;45.222;5.688;2024-01-06T11:07:42;4.43;;;3.00;;
14770;SDS011;7477;45.222;5.688;2024-01-06T11:11:02;4.35;;;2.15;;
14770;SDS011;7477;45.222;5.688;2024-01-06T11:14:23;3.63;;;2.88;;
14770;SDS011;7477;45.222;5.688;2024-01-06T11:17:57;3.45;;;2.28;;
14770;SDS011;7477;45.222;5.688;2024-01-06T11:21:20;3.53;;;2.15;;
14770;SDS011;7477;45.222;5.688;2024-01-06T11:24:49;2.47;;;1.80;;
14770;SDS011;7477;45.222;5.688;2024-01-06T11:28:16;4.40;;;2.00;;
14770;SDS011;7477;45.222;5.688;2024-01-06T11:31:36;5.53;;;2.65;;
14770;SDS011;7477;45.222;5.688;2024-01-06T11:35:03;4.70;;;2.70;;
14770;SDS011;7477;45.222;5.688;2024-01-06T11:38:33;9.30;;;4.32;;
14770;SDS011;7477;45.222;5.688;2024-01-06T11:41:56;3.20;;;2.80;;
14770;SDS011;7477;45.222;5.688;2024-01-06T11:45:16;7.33;;;3.27;;
14770;SDS011;7477;45.222;5.688;2024-01-06T11:48:35;2.67;;;2.13;;
14770;SDS011;7477;45.222;5.688;2024-01-06T11:51:58;6.43;;;2.27;;
14770;SDS011;7477;45.222;5.688;2024-01-06T11:55:18;5.03;;;1.90;;
14770;SDS011;7477;45.222;5.688;2024-01-06T11:58:41;2.83;;;1.90;;
14770;SDS011;7477;45.222;5.688;2024-01-06T12:02:00;5.07;;;2.40;;
14770;SDS011;7477;45.222;5.688;2024-01-06T12:05:19;3.28;;;2.13;;
14770;SDS011;7477;45.222;5.688;2024-01-06T12:08:38;2.13;;;1.95;;
14770;SDS011;7477;45.222;5.688;2024-01-06T12:12:04;2.92;;;2.25;;
14770;SDS011;7477;45.222;5.688;2024-01-06T12:15:25;2.30;;;2.08;;
14770;SDS011;7477;45.222;5.688;2024-01-06T12:18:48;3.93;;;2.90;;
14770;SDS011;7477;45.222;5.688;2024-01-06T12:22:12;3.90;;;2.00;;
14770;SDS011;7477;45.222;5.688;2024-01-06T12:25:34;3.92;;;1.92;;
14770;SDS011;7477;45.222;5.688;2024-01-06T12:28:54;2.13;;;1.85;;
14770;SDS011;7477;45.222;5.688;2024-01-06T12:32:13;3.65;;;2.03;;
14770;SDS011;7477;45.222;5.688;2024-01-06T12:35:33;2.65;;;1.67;;
14770;SDS011;7477;45.222;5.688;2024-01-06T12:38:53;6.47;;;2.00;;
14770;SDS011;7477;45.222;5.688;2024-01-06T12:42:15;9.73;;;4.53;;
14770;SDS011;7477;45.222;5.688;2024-01-06T12:45:35;10.15;;;6.97;;
14770;SDS011;7477;45.222;5.688;2024-01-06T12:48:54;3.97;;;1.80;;
14770;SDS011;7477;45.222;5.688;2024-01-06T12:52:13;1.75;;;1.33;;
14770;SDS011;7477;45.222;5.688;2024-01-06T12:55:32;2.97;;;1.30;;
14770;SDS011;7477;45.222;5.688;2024-01-06T12:58:52;2.55;;;1.95;;
14770;SDS011;7477;45.222;5.688;2024-01-06T13:02:11;13.63;;;1.75;;
14770;SDS011;7477;45.222;5.688;2024-01-06T13:05:30;1.83;;;1.65;;
14770;SDS011;7477;45.222;5.688;2024-01-06T13:08:50;2.22;;;1.50;;
14770;SDS011;7477;45.222;5.688;2024-01-06T13:12:09;2.20;;;1.27;;
14770;SDS011;7477;45.222;5.688;2024-01-06T13:15:28;1.27;;;1.17;;
14770;SDS011;7477;45.222;5.688;2024-01-06T13:18:47;6.38;;;3.22;;
14770;SDS011;7477;45.222;5.688;2024-01-06T13:22:07;3.63;;;1.80;;
14770;SDS011;7477;45.222;5.688;2024-01-06T13:25:27;2.33;;;1.42;;
14770;SDS011;7477;45.222;5.688;2024-01-06T13:28:47;5.53;;;1.73;;
14770;SDS011;7477;45.222;5.688;2024-01-06T13:32:07;1.73;;;1.40;;
14770;SDS011;7477;45.222;5.688;2024-01-06T13:35:26;1.58;;;1.42;;
14770;SDS011;7477;45.222;5.688;2024-01-06T13:38:47;2.80;;;1.60;;
14770;SDS011;7477;45.222;5.688;2024-01-06T13:42:07;2.60;;;1.40;;
14770;SDS011;7477;45.222;5.688;2024-01-06T13:45:26;4.05;;;1.27;;
14770;SDS011;7477;45.222;5.688;2024-01-06T13:48:49;3.85;;;1.42;;
14770;SDS011;7477;45.222;5.688;2024-01-06T13:52:08;2.50;;;1.42;;
14770;SDS011;7477;45.222;5.688;2024-01-06T13:55:27;2.72;;;1.42;;
14770;SDS011;7477;45.222;5.688;2024-01-06T13:58:47;1.80;;;1.60;;
14770;SDS011;7477;45.222;5.688;2024-01-06T14:02:06;3.80;;;1.52;;
14770;SDS011;7477;45.222;5.688;2024-01-06T14:05:26;2.50;;;1.67;;
14770;SDS011;7477;45.222;5.688;2024-01-06T14:08:45;1.52;;;1.42;;
14770;SDS011;7477;45.222;5.688;2024-01-06T14:12:05;2.10;;;1.23;;
14770;SDS011;7477;45.222;5.688;2024-01-06T14:15:24;6.60;;;3.97;;
14770;SDS011;7477;45.222;5.688;2024-01-06T14:18:45;2.13;;;1.67;;
14770;SDS011;7477;45.222;5.688;2024-01-06T14:22:05;4.35;;;1.80;;
14770;SDS011;7477;45.222;5.688;2024-01-06T14:25:24;1.23;;;0.98;;
14770;SDS011;7477;45.222;5.688;2024-01-06T14:28:44;3.80;;;1.25;;
14770;SDS011;7477;45.222;5.688;2024-01-06T14:32:03;2.45;;;1.80;;
14770;SDS011;7477;45.222;5.688;2024-01-06T14:35:23;2.53;;;1.52;;
14770;SDS011;7477;45.222;5.688;2024-01-06T14:38:42;4.35;;;2.75;;
14770;SDS011;7477;45.222;5.688;2024-01-06T14:42:01;3.42;;;1.40;;
14770;SDS011;7477;45.222;5.688;2024-01-06T14:45:21;1.90;;;1.33;;
14770;SDS011;7477;45.222;5.688;2024-01-06T14:48:40;1.80;;;1.67;;
14770;SDS011;7477;45.222;5.688;2024-01-06T14:52:00;3.78;;;2.33;;
14770;SDS011;7477;45.222;5.688;2024-01-06T14:55:20;1.60;;;1.50;;
14770;SDS011;7477;45.222;5.688;2024-01-06T14:58:39;3.15;;;2.08;;
14770;SDS011;7477;45.222;5.688;2024-01-06T15:01:58;2.58;;;1.48;;
14770;SDS011;7477;45.222;5.688;2024-01-06T15:05:18;3.88;;;1.65;;
14770;SDS011;7477;45.222;5.688;2024-01-06T15:08:37;3.97;;;3.00;;
14770;SDS011;7477;45.222;5.688;2024-01-06T15:11:56;3.65;;;1.98;;
14770;SDS011;7477;45.222;5.688;2024-01-06T15:15:15;2.45;;;2.03;;
14770;SDS011;7477;45.222;5.688;2024-01-06T15:18:34;1.65;;;1.55;;
14770;SDS011;7477;45.222;5.688;2024-01-06T15:21:54;2.90;;;2.10;;
14770;SDS011;7477;45.222;5.688;2024-01-06T15:25:13;2.85;;;1.58;;
14770;SDS011;7477;45.222;5.688;2024-01-06T15:28:33;3.05;;;2.10;;
14770;SDS011;7477;45.222;5.688;2024-01-06T15:31:53;2.10;;;1.90;;
14770;SDS011;7477;45.222;5.688;2024-01-06T15:35:16;4.03;;;2.67;;
14770;SDS011;7477;45.222;5.688;2024-01-06T15:38:35;3.60;;;2.80;;
14770;SDS011;7477;45.222;5.688;2024-01-06T15:41:54;2.08;;;1.70;;
14770;SDS011;7477;45.222;5.688;2024-01-06T15:45:13;3.45;;;2.10;;
14770;SDS011;7477;45.222;5.688;2024-01-06T15:48:33;7.35;;;4.70;;
14770;SDS011;7477;45.222;5.688;2024-01-06T15:51:52;3.10;;;2.13;;
14770;SDS011;7477;45.222;5.688;2024-01-06T15:55:11;2.17;;;1.90;;
14770;SDS011;7477;45.222;5.688;2024-01-06T15:58:31;2.83;;;1.83;;
14770;SDS011;7477;45.222;5.688;2024-01-06T16:01:50;11.82;;;6.28;;
14770;SDS011;7477;45.222;5.688;2024-01-06T16:05:10;4.80;;;3.10;;
14770;SDS011;7477;45.222;5.688;2024-01-06T16:08:31;4.43;;;1.50;;
14770;SDS011;7477;45.222;5.688;2024-01-06T16:11:51;1.80;;;1.70;;
14770;SDS011;7477;45.222;5.688;2024-01-06T16:15:11;2.35;;;1.80;;
14770;SDS011;7477;45.222;5.688;2024-01-06T16:18:30;3.67;;;2.03;;
14770;SDS011;7477;45.222;5.688;2024-01-06T16:21:50;2.05;;;1.80;;
14770;SDS011;7477;45.222;5.688;2024-01-06T16:25:09;3.60;;;2.42;;
14770;SDS011;7477;45.222;5.688;2024-01-06T16:28:28;4.03;;;2.63;;
14770;SDS011;7477;45.222;5.688;2024-01-06T16:31:47;2.20;;;1.75;;
14770;SDS011;7477;45.222;5.688;2024-01-06T16:35:06;3.92;;;3.17;;
14770;SDS011;7477;45.222;5.688;2024-01-06T16:38:27;2.83;;;2.15;;
14770;SDS011;7477;45.222;5.688;2024-01-06T16:41:53;2.10;;;1.90;;
14770;SDS011;7477;45.222;5.688;2024-01-06T16:45:15;2.60;;;1.67;;
14770;SDS011;7477;45.222;5.688;2024-01-06T16:48:34;2.67;;;1.60;;
14770;SDS011;7477;45.222;5.688;2024-01-06T16:51:54;3.47;;;2.30;;
14770;SDS011;7477;45.222;5.688;2024-01-06T16:55:14;5.47;;;2.33;;
14770;SDS011;7477;45.222;5.688;2024-01-06T16:58:34;2.30;;;1.80;;
14770;SDS011;7477;45.222;5.688;2024-01-06T17:01:53;4.45;;;2.33;;
14770;SDS011;7477;45.222;5.688;2024-01-06T17:05:12;3.85;;;2.25;;
14770;SDS011;7477;45.222;5.688;2024-01-06T17:08:31;4.80;;;2.10;;
14770;SDS011;7477;45.222;5.688;2024-01-06T17:11:51;4.55;;;2.35;;
14770;SDS011;7477;45.222;5.688;2024-01-06T17:15:10;4.93;;;2.75;;
14770;SDS011;7477;45.222;5.688;2024-01-06T17:18:30;2.42;;;2.10;;
14770;SDS011;7477;45.222;5.688;2024-01-06T17:21:50;3.38;;;2.13;;
14770;SDS011;7477;45.222;5.688;2024-01-06T17:25:09;2.75;;;2.10;;
14770;SDS011;7477;45.222;5.688;2024-01-06T17:28:31;2.15;;;1.90;;
14770;SDS011;7477;45.222;5.688;2024-01-06T17:31:50;1.98;;;1.75;;
14770;SDS011;7477;45.222;5.688;2024-01-06T17:35:09;2.63;;;1.90;;
14770;SDS011;7477;45.222;5.688;2024-01-06T17:38:29;2.80;;;2.20;;
14770;SDS011;7477;45.222;5.688;2024-01-06T17:41:48;2.50;;;1.75;;
14770;SDS011;7477;45.222;5.688;2024-01-06T17:45:07;2.45;;;2.20;;
14770;SDS011;7477;45.222;5.688;2024-01-06T17:48:27;4.85;;;2.28;;
14770;SDS011;7477;45.222;5.688;2024-01-06T17:51:46;2.17;;;1.95;;
14770;SDS011;7477;45.222;5.688;2024-01-06T17:55:06;3.08;;;2.53;;
14770;SDS011;7477;45.222;5.688;2024-01-06T17:58:26;2.28;;;1.75;;
14770;SDS011;7477;45.222;5.688;2024-01-06T18:01:45;4.88;;;2.35;;
14770;SDS011;7477;45.222;5.688;2024-01-06T18:05:04;3.17;;;2.33;;
14770;SDS011;7477;45.222;5.688;2024-01-06T18:08:23;3.95;;;2.60;;
14770;SDS011;7477;45.222;5.688;2024-01-06T18:11:43;2.77;;;2.47;;
14770;SDS011;7477;45.222;5.688;2024-01-06T18:15:04;3.00;;;2.58;;
14770;SDS011;7477;45.222;5.688;2024-01-06T18:18:23;3.15;;;2.22;;
14770;SDS011;7477;45.222;5.688;2024-01-06T18:21:43;3.78;;;2.30;;
14770;SDS011;7477;45.222;5.688;2024-01-06T18:25:02;2.03;;;1.50;;
14770;SDS011;7477;45.222;5.688;2024-01-06T18:28:22;5.20;;;2.38;;
14770;SDS011;7477;45.222;5.688;2024-01-06T18:31:43;2.40;;;2.20;;
14770;SDS011;7477;45.222;5.688;2024-01-06T18:35:03;2.67;;;2.17;;
14770;SDS011;7477;45.222;5.688;2024-01-06T18:38:24;2.55;;;1.92;;
14770;SDS011;7477;45.222;5.688;2024-01-06T18:41:44;2.08;;;1.83;;
14770;SDS011;7477;45.222;5.688;2024-01-06T18:45:03;3.25;;;2.28;;
14770;SDS011;7477;45.222;5.688;2024-01-06T18:48:22;2.53;;;2.10;;
14770;SDS011;7477;45.222;5.688;2024-01-06T18:51:42;2.75;;;1.92;;
14770;SDS011;7477;45.222;5.688;2024-01-06T18:55:02;4.18;;;2.97;;
14770;SDS011;7477;45.222;5.688;2024-01-06T18:58:21;3.30;;;2.53;;
14770;SDS011;7477;45.222;5.688;2024-01-06T19:01:41;3.67;;;1.92;;
14770;SDS011;7477;45.222;5.688;2024-01-06T19:05:02;6.03;;;2.65;;
14770;SDS011;7477;45.222;5.688;2024-01-06T19:08:23;3.03;;;2.20;;
14770;SDS011;7477;45.222;5.688;2024-01-06T19:11:42;2.20;;;1.88;;
14770;SDS011;7477;45.222;5.688;2024-01-06T19:15:01;1.83;;;1.58;;
14770;SDS011;7477;45.222;5.688;2024-01-06T19:18:21;2.05;;;1.60;;
14770;SDS011;7477;45.222;5.688;2024-01-06T19:21:40;2.20;;;1.90;;
14770;SDS011;7477;45.222;5.688;2024-01-06T19:24:59;2.55;;;1.60;;
14770;SDS011;7477;45.222;5.688;2024-01-06T19:28:19;3.53;;;2.00;;
14770;SDS011;7477;45.222;5.688;2024-01-06T19:31:38;2.38;;;2.10;;
14770;SDS011;7477;45.222;5.688;2024-01-06T19:34:57;3.50;;;1.67;;
14770;SDS011;7477;45.222;5.688;2024-01-06T19:38:16;2.05;;;1.58;;
14770;SDS011;7477;45.222;5.688;2024-01-06T19:41:36;2.17;;;1.97;;
14770;SDS011;7477;45.222;5.688;2024-01-06T19:44:54;5.60;;;3.47;;
14770;SDS011;7477;45.222;5.688;2024-01-06T19:48:13;2.70;;;2.00;;
14770;SDS011;7477;45.222;5.688;2024-01-06T19:51:33;2.30;;;2.03;;
14770;SDS011;7477;45.222;5.688;2024-01-06T19:54:52;2.47;;;2.10;;
14770;SDS011;7477;45.222;5.688;2024-01-06T19:58:11;2.80;;;2.20;;
14770;SDS011;7477;45.222;5.688;2024-01-06T20:01:32;2.00;;;1.80;;
14770;SDS011;7477;45.222;5.688;2024-01-06T20:04:54;2.35;;;1.75;;
14770;SDS011;7477;45.222;5.688;2024-01-06T20:08:13;2.88;;;1.35;;
14770;SDS011;7477;45.222;5.688;2024-01-06T20:11:33;1.65;;;1.50;;
14770;SDS011;7477;45.222;5.688;2024-01-06T20:14:52;2.13;;;1.75;;
14770;SDS011;7477;45.222;5.688;2024-01-06T20:18:12;1.88;;;1.67;;
14770;SDS011;7477;45.222;5.688;2024-01-06T20:21:32;2.05;;;1.65;;